Time;durP1;ratioP1;P1;durP2;ratioP2;P2;SDS_P1;SDS_P2;PMS_P1;PMS_P2;Temp;Humidity;BMP_temperature;BMP_pressure;BME280_temperature;BME280_humidity;BME280_pressure;Samples;Min_cycle;Max_cycle;Signal;HPM_P1;HPM_P2
2023/01/08 00:01:47;;;;;;;6.95;3.72;;;9.30;99.90;;;;;;5137320;28;20035;-59
2023/01/08 00:04:13;;;;;;;7.07;4.03;;;9.30;99.90;;;;;;5138115;28;20087;-59
2023/01/08 00:06:38;;;;;;;7.85;4.15;;;9.30;99.90;;;;;;5137729;28;20047;-58
2023/01/08 00:09:04;;;;;;;6.93;3.70;;;9.30;99.90;;;;;;5137287;28;20035;-58
2023/01/08 00:11:30;;;;;;;7.45;3.75;;;9.40;99.90;;;;;;5138262;28;20115;-58
2023/01/08 00:13:56;;;;;;;7.97;3.78;;;9.40;99.90;;;;;;5143054;27;20045;-59
2023/01/08 00:16:21;;;;;;;7.45;3.70;;;9.50;99.90;;;;;;5162562;27;20043;-58
2023/01/08 00:18:47;;;;;;;7.40;3.88;;;9.40;99.90;;;;;;5161249;27;20050;-58
2023/01/08 00:21:13;;;;;;;7.13;4.15;;;9.70;99.90;;;;;;5162649;27;20043;-59
2023/01/08 00:23:39;;;;;;;8.57;4.07;;;9.40;99.90;;;;;;5161607;27;20067;-58
2023/01/08 00:26:09;;;;;;;9.05;4.38;;;9.40;99.90;;;;;;5143008;27;20047;-58
2023/01/08 00:28:36;;;;;;;7.32;3.88;;;9.40;99.90;;;;;;5162279;27;20110;-58
2023/01/08 00:31:07;;;;;;;7.35;4.10;;;9.40;99.90;;;;;;5161292;27;20075;-56
2023/01/08 00:33:34;;;;;;;7.82;4.00;;;9.50;99.90;;;;;;5162521;27;20053;-56
2023/01/08 00:36:00;;;;;;;7.82;4.00;;;9.40;99.90;;;;;;5142762;27;20057;-57
2023/01/08 00:38:29;;;;;;;7.22;3.60;;;9.30;99.90;;;;;;5162391;27;20026;-58
2023/01/08 00:40:54;;;;;;;8.27;4.10;;;9.60;99.90;;;;;;5162074;27;20049;-58
2023/01/08 00:43:20;;;;;;;9.75;4.10;;;9.30;99.90;;;;;;5142738;27;20074;-58
2023/01/08 00:45:46;;;;;;;8.25;3.90;;;9.30;99.90;;;;;;5161859;27;20035;-58
2023/01/08 00:48:12;;;;;;;8.75;3.75;;;9.40;99.90;;;;;;5161285;27;20092;-57
2023/01/08 00:50:37;;;;;;;6.75;3.90;;;9.30;99.90;;;;;;5143260;27;20138;-57
2023/01/08 00:53:03;;;;;;;9.23;3.85;;;9.30;99.90;;;;;;5161182;27;20047;-58
2023/01/08 00:55:29;;;;;;;7.97;4.28;;;9.30;99.90;;;;;;5128671;27;20050;-57
2023/01/08 00:57:56;;;;;;;6.47;3.80;;;9.30;99.90;;;;;;5140854;27;20479;-57
2023/01/08 01:00:22;;;;;;;9.07;4.88;;;9.20;99.90;;;;;;5140546;27;20039;-58
2023/01/08 01:02:48;;;;;;;8.75;3.85;;;9.30;99.90;;;;;;5140678;27;20360;-57
2023/01/08 01:05:16;;;;;;;6.32;3.30;;;9.20;99.90;;;;;;5140108;27;20068;-57
2023/01/08 01:07:43;;;;;;;7.55;4.03;;;9.20;99.90;;;;;;5140914;27;20465;-58
2023/01/08 01:10:10;;;;;;;8.38;3.58;;;9.30;99.90;;;;;;5140182;27;20042;-57
2023/01/08 01:12:37;;;;;;;7.05;3.50;;;9.30;99.90;;;;;;5140331;27;20414;-57
2023/01/08 01:15:05;;;;;;;8.05;4.20;;;9.30;99.90;;;;;;5140139;27;20047;-57
2023/01/08 01:17:31;;;;;;;7.38;3.45;;;9.20;99.90;;;;;;5140421;27;20668;-57
2023/01/08 01:19:57;;;;;;;6.65;3.90;;;9.20;99.90;;;;;;5140440;27;20558;-57
2023/01/08 01:22:22;;;;;;;10.05;4.00;;;9.20;99.90;;;;;;5139760;27;20082;-57
2023/01/08 01:24:48;;;;;;;8.55;3.33;;;9.20;99.90;;;;;;5140295;27;20038;-58
2023/01/08 01:27:14;;;;;;;8.90;3.20;;;9.20;99.90;;;;;;5139662;27;20039;-57
2023/01/08 01:29:39;;;;;;;7.32;3.38;;;9.20;99.90;;;;;;5139742;27;20096;-57
2023/01/08 01:32:05;;;;;;;9.43;3.50;;;9.20;99.90;;;;;;5139715;27;20039;-57
2023/01/08 01:34:31;;;;;;;8.68;3.67;;;9.20;99.90;;;;;;5139895;27;20529;-56
2023/01/08 01:36:57;;;;;;;7.53;3.38;;;9.20;99.90;;;;;;5140209;27;20039;-57
2023/01/08 01:39:22;;;;;;;8.93;2.88;;;9.30;99.90;;;;;;5139090;27;20047;-57
2023/01/08 01:41:48;;;;;;;8.93;2.70;;;9.30;99.90;;;;;;5139759;27;20042;-57
2023/01/08 01:44:43;;;;;;;6.43;2.90;;;9.20;99.90;;;;;;5120687;27;20458;-57
2023/01/08 01:47:30;;;;;;;7.10;2.40;;;9.20;99.90;;;;;;5139971;27;20043;-57
2023/01/08 01:50:02;;;;;;;7.40;2.83;;;9.10;99.90;;;;;;5139689;27;20039;-57
2023/01/08 01:52:32;;;;;;;7.70;3.30;;;9.10;99.90;;;;;;5139052;27;20043;-57
2023/01/08 01:55:00;;;;;;;6.40;2.70;;;9.20;99.90;;;;;;5139514;27;20035;-58
2023/01/08 01:57:29;;;;;;;8.27;2.92;;;9.00;99.90;;;;;;5139016;27;20088;-57
2023/01/08 01:59:57;;;;;;;6.80;2.63;;;9.20;99.90;;;;;;5139716;27;20112;-57
2023/01/08 02:02:22;;;;;;;7.25;2.38;;;9.10;99.90;;;;;;5139124;27;20043;-57
2023/01/08 02:04:48;;;;;;;6.82;2.90;;;9.10;99.90;;;;;;5138936;27;20043;-57
2023/01/08 02:07:41;;;;;;;6.97;3.03;;;9.00;99.90;;;;;;5139897;27;20039;-57
2023/01/08 02:10:35;;;;;;;7.85;3.40;;;9.10;99.90;;;;;;5139255;27;20043;-57
2023/01/08 02:13:11;;;;;;;8.50;3.85;;;9.00;99.90;;;;;;5139573;27;20043;-56
2023/01/08 02:15:51;;;;;;;9.32;3.63;;;9.00;99.90;;;;;;5139592;27;20047;-58
2023/01/08 02:18:31;;;;;;;8.77;3.03;;;9.00;99.90;;;;;;5138894;27;20042;-56
2023/01/08 02:21:40;;;;;;;10.05;2.90;;;8.90;99.90;;;;;;5139310;27;20039;-57
2023/01/08 02:24:30;;;;;;;8.18;2.90;;;8.90;99.90;;;;;;5139058;27;20497;-57
2023/01/08 02:26:58;;;;;;;8.50;2.55;;;8.90;99.90;;;;;;5138683;27;20047;-57
2023/01/08 02:29:27;;;;;;;9.68;2.90;;;8.90;99.90;;;;;;5138989;27;20038;-58
2023/01/08 02:31:53;;;;;;;7.03;2.60;;;8.80;99.90;;;;;;5138330;27;20053;-57
2023/01/08 02:34:19;;;;;;;8.50;3.03;;;8.80;99.90;;;;;;5139180;27;20050;-57
2023/01/08 02:36:51;;;;;;;11.82;2.80;;;8.80;99.90;;;;;;5138509;27;20047;-58
2023/01/08 02:39:23;;;;;;;8.80;2.58;;;8.70;99.90;;;;;;5119859;27;20055;-58
2023/01/08 02:42:22;;;;;;;9.45;2.75;;;8.60;99.90;;;;;;5138910;27;20047;-57
2023/01/08 02:45:06;;;;;;;9.25;2.63;;;8.70;99.90;;;;;;5147017;27;20054;-58
2023/01/08 02:47:36;;;;;;;10.18;2.17;;;8.60;99.90;;;;;;5159748;27;20095;-58
2023/01/08 02:50:13;;;;;;;9.15;2.50;;;8.60;99.90;;;;;;5160080;27;20043;-57
2023/01/08 02:52:59;;;;;;;8.55;2.10;;;8.60;99.90;;;;;;5158951;27;20031;-58
2023/01/08 02:55:27;;;;;;;9.13;2.33;;;8.50;99.90;;;;;;5146067;27;20126;-57
2023/01/08 02:57:53;;;;;;;14.55;2.60;;;8.40;99.90;;;;;;5138643;27;20082;-57
2023/01/08 03:00:20;;;;;;;14.02;2.50;;;8.40;99.90;;;;;;5138270;27;20055;-57
2023/01/08 03:02:49;;;;;;;11.73;3.10;;;8.40;99.90;;;;;;5120917;27;20047;-57
2023/01/08 03:05:22;;;;;;;13.25;3.22;;;8.30;99.90;;;;;;5137933;27;20073;-58
2023/01/08 03:07:48;;;;;;;9.88;1.90;;;8.30;99.90;;;;;;5138818;28;20053;-57
2023/01/08 03:10:14;;;;;;;10.68;1.95;;;8.20;99.90;;;;;;5137910;28;20583;-58
2023/01/08 03:12:53;;;;;;;11.02;2.67;;;8.20;99.90;;;;;;5120298;28;20073;-57
2023/01/08 03:15:29;;;;;;;11.52;2.53;;;8.10;99.90;;;;;;5138880;28;20530;-57
2023/01/08 03:17:59;;;;;;;9.98;2.22;;;8.10;99.90;;;;;;5138064;28;20051;-58
2023/01/08 03:20:24;;;;;;;17.80;2.70;;;8.00;99.90;;;;;;5120450;28;20051;-57
2023/01/08 03:22:54;;;;;;;9.43;2.30;;;8.00;99.90;;;;;;5138123;28;20039;-57
2023/01/08 03:25:22;;;;;;;12.90;1.85;;;8.00;99.90;;;;;;5138629;28;20039;-57
2023/01/08 03:27:53;;;;;;;14.63;2.28;;;7.90;99.90;;;;;;5137852;28;20047;-57
2023/01/08 03:30:20;;;;;;;12.75;1.98;;;8.00;99.90;;;;;;5137778;28;20469;-58
2023/01/08 03:32:48;;;;;;;14.68;3.15;;;7.80;99.90;;;;;;5138409;28;20085;-57
2023/01/08 03:35:19;;;;;;;11.00;2.45;;;7.90;99.90;;;;;;5137735;28;20119;-56
2023/01/08 03:37:51;;;;;;;11.65;1.90;;;7.80;99.90;;;;;;5138401;28;20050;-57
2023/01/08 03:40:20;;;;;;;;;;;7.80;99.90;;;;;;5138425;28;20073;-57
2023/01/08 03:42:46;;;;;;;9.18;2.10;;;7.80;99.90;;;;;;5119803;28;19930;-58
2023/01/08 03:45:12;;;;;;;14.70;2.38;;;7.80;99.90;;;;;;5119193;28;20044;-57
2023/01/08 03:47:40;;;;;;;11.73;3.03;;;7.80;99.90;;;;;;5137869;27;20105;-57
2023/01/08 03:50:10;;;;;;;10.73;2.03;;;7.90;99.90;;;;;;5123354;27;20058;-57
2023/01/08 03:52:36;;;;;;;12.25;2.15;;;7.80;99.90;;;;;;5141215;27;20494;-58
2023/01/08 03:55:02;;;;;;;11.80;2.28;;;7.80;99.90;;;;;;5142279;27;20046;-57
2023/01/08 03:57:28;;;;;;;9.77;2.88;;;7.90;99.90;;;;;;5141313;27;20114;-58
2023/01/08 03:59:53;;;;;;;11.65;2.25;;;7.90;99.90;;;;;;5141800;27;20064;-57
2023/01/08 04:02:19;;;;;;;12.05;2.67;;;7.80;99.90;;;;;;5141823;27;20096;-57
2023/01/08 04:04:46;;;;;;;10.88;2.35;;;7.80;99.90;;;;;;5123097;27;20035;-58
2023/01/08 04:07:11;;;;;;;10.13;2.38;;;7.80;99.90;;;;;;5142195;27;20047;-58
2023/01/08 04:09:37;;;;;;;11.77;2.65;;;7.80;99.90;;;;;;5140922;27;20046;-59
2023/01/08 04:12:03;;;;;;;11.13;2.25;;;7.80;99.90;;;;;;5141357;27;20035;-58
2023/01/08 04:14:28;;;;;;;7.68;2.15;;;7.80;99.90;;;;;;5122784;27;20039;-58
2023/01/08 04:16:54;;;;;;;10.00;2.22;;;7.80;99.90;;;;;;5141690;27;20041;-58
2023/01/08 04:19:20;;;;;;;11.57;2.20;;;7.90;99.90;;;;;;5141237;27;20073;-57
2023/01/08 04:21:48;;;;;;;9.88;2.50;;;7.80;99.90;;;;;;5140960;27;20050;-57
2023/01/08 04:24:14;;;;;;;10.73;2.45;;;7.80;99.90;;;;;;5141545;27;20061;-58
2023/01/08 04:26:39;;;;;;;10.77;2.60;;;7.90;99.90;;;;;;5140586;27;20110;-58
2023/01/08 04:29:05;;;;;;;12.00;2.70;;;7.90;99.90;;;;;;5123002;27;20067;-58
2023/01/08 04:31:31;;;;;;;11.15;3.72;;;7.80;99.90;;;;;;5140313;27;20055;-58
2023/01/08 04:33:56;;;;;;;12.90;2.80;;;7.80;99.90;;;;;;5141482;27;20066;-57
2023/01/08 04:36:22;;;;;;;9.60;2.30;;;7.80;99.90;;;;;;5140957;27;20031;-56
2023/01/08 04:38:48;;;;;;;11.02;2.50;;;7.80;99.90;;;;;;5140676;27;20071;-58
2023/01/08 04:41:13;;;;;;;10.77;2.40;;;7.80;99.90;;;;;;5141525;27;20122;-57
2023/01/08 04:43:39;;;;;;;8.55;2.63;;;7.80;99.90;;;;;;5140321;27;20084;-57
2023/01/08 04:46:06;;;;;;;13.55;2.85;;;7.80;99.90;;;;;;5141145;27;20043;-57
2023/01/08 04:48:32;;;;;;;9.60;2.47;;;7.70;99.90;;;;;;5140256;27;20043;-57
2023/01/08 04:50:59;;;;;;;10.00;2.58;;;7.70;99.90;;;;;;5141128;27;20185;-57
2023/01/08 04:53:25;;;;;;;6.70;2.00;;;7.90;99.90;;;;;;5140398;27;20124;-57
2023/01/08 04:55:51;;;;;;;9.82;2.58;;;7.80;99.90;;;;;;5158174;27;20038;-57
2023/01/08 04:58:17;;;;;;;8.23;2.88;;;7.80;99.90;;;;;;5161402;27;20079;-57
2023/01/08 05:00:43;;;;;;;9.23;2.70;;;7.80;99.90;;;;;;5160474;27;20047;-57
2023/01/08 05:03:08;;;;;;;12.50;3.83;;;7.70;99.90;;;;;;5161697;27;20035;-57
2023/01/08 05:05:34;;;;;;;9.55;2.65;;;7.80;99.90;;;;;;5160781;27;20034;-57
2023/01/08 05:08:00;;;;;;;10.23;3.20;;;7.70;99.90;;;;;;5142790;27;20035;-57
2023/01/08 05:10:26;;;;;;;7.47;2.58;;;7.80;99.90;;;;;;5160974;27;20074;-57
2023/01/08 05:12:51;;;;;;;11.48;3.00;;;7.80;99.90;;;;;;5161137;27;20045;-57
2023/01/08 05:15:17;;;;;;;9.57;3.05;;;7.80;99.90;;;;;;5161176;27;20031;-57
2023/01/08 05:17:43;;;;;;;8.75;2.85;;;7.90;99.90;;;;;;5160824;27;20600;-57
2023/01/08 05:20:08;;;;;;;7.25;2.95;;;7.80;99.90;;;;;;5161324;27;20039;-57
2023/01/08 05:22:34;;;;;;;7.85;2.75;;;7.70;99.90;;;;;;5141351;27;20053;-57
2023/01/08 05:25:00;;;;;;;6.60;3.00;;;7.90;99.90;;;;;;5161167;27;20049;-58
2023/01/08 05:27:28;;;;;;;9.18;3.25;;;7.90;99.90;;;;;;5160396;27;20650;-57
2023/01/08 05:29:53;;;;;;;7.90;3.30;;;7.80;99.90;;;;;;5160962;27;20050;-57
2023/01/08 05:32:19;;;;;;;8.48;3.15;;;7.90;99.90;;;;;;5160849;27;20090;-59
2023/01/08 05:34:45;;;;;;;7.68;3.03;;;7.80;99.90;;;;;;5160261;27;20070;-57
2023/01/08 05:37:11;;;;;;;11.25;3.67;;;7.80;99.90;;;;;;5160977;27;20035;-57
2023/01/08 05:39:37;;;;;;;8.40;3.22;;;8.00;99.90;;;;;;5159944;27;20043;-57
2023/01/08 05:42:03;;;;;;;9.43;3.28;;;7.90;99.90;;;;;;5160620;27;20050;-57
2023/01/08 05:44:28;;;;;;;8.00;3.40;;;7.90;99.90;;;;;;5160112;27;20068;-58
2023/01/08 05:46:54;;;;;;;11.23;4.65;;;7.80;99.90;;;;;;5160828;27;20046;-58
2023/01/08 05:49:23;;;;;;;8.50;3.30;;;7.80;99.90;;;;;;5160044;27;20102;-58
2023/01/08 05:51:49;;;;;;;9.40;3.42;;;7.90;99.90;;;;;;5159838;27;20061;-58
2023/01/08 05:54:15;;;;;;;9.68;3.22;;;7.80;99.90;;;;;;5156769;27;20043;-58
2023/01/08 05:56:42;;;;;;;8.48;3.50;;;7.70;99.90;;;;;;5138949;27;20103;-58
2023/01/08 05:59:11;;;;;;;9.95;3.35;;;7.70;99.90;;;;;;5139436;27;20138;-57
2023/01/08 06:01:37;;;;;;;8.80;3.13;;;7.60;99.90;;;;;;5139031;27;20031;-58
2023/01/08 06:04:03;;;;;;;8.85;3.63;;;7.80;99.90;;;;;;5139783;27;20039;-58
2023/01/08 06:06:29;;;;;;;9.95;3.85;;;7.70;99.90;;;;;;5139208;27;20027;-58
2023/01/08 06:08:54;;;;;;;8.48;3.10;;;7.60;99.90;;;;;;5138724;27;20047;-56
2023/01/08 06:11:20;;;;;;;9.23;2.80;;;7.60;99.90;;;;;;5120448;27;20039;-58
2023/01/08 06:13:45;;;;;;;7.90;2.67;;;7.60;99.90;;;;;;5138373;27;20046;-58
2023/01/08 06:16:11;;;;;;;8.95;2.70;;;7.50;99.90;;;;;;5121061;27;20108;-57
2023/01/08 06:18:37;;;;;;;6.72;2.30;;;7.60;99.90;;;;;;5138386;27;20039;-57
2023/01/08 06:21:04;;;;;;;7.32;2.42;;;7.50;99.90;;;;;;5139278;27;20110;-58
2023/01/08 06:23:30;;;;;;;8.48;2.58;;;7.60;99.90;;;;;;5139017;27;20043;-58
2023/01/08 06:25:58;;;;;;;8.80;2.55;;;7.50;99.90;;;;;;5139304;27;20039;-57
2023/01/08 06:28:24;;;;;;;8.57;2.17;;;7.50;99.90;;;;;;5139611;27;20027;-56
2023/01/08 06:30:50;;;;;;;9.52;2.00;;;7.60;99.90;;;;;;5138656;27;20051;-57
2023/01/08 06:33:16;;;;;;;8.50;2.05;;;7.60;99.90;;;;;;5139108;27;20079;-57
2023/01/08 06:35:42;;;;;;;11.45;2.10;;;7.50;99.90;;;;;;5138623;27;20072;-58
2023/01/08 06:38:08;;;;;;;9.15;2.08;;;7.60;99.90;;;;;;5139644;27;20043;-57
2023/01/08 06:40:34;;;;;;;8.15;2.30;;;7.50;99.90;;;;;;5138688;27;20055;-57
2023/01/08 06:43:04;;;;;;;10.27;2.20;;;7.60;99.90;;;;;;5139155;27;20035;-58
2023/01/08 06:45:30;;;;;;;8.52;2.17;;;7.50;99.90;;;;;;5138978;27;20050;-57
2023/01/08 06:48:00;;;;;;;6.95;2.40;;;7.50;99.90;;;;;;5138278;27;20470;-57
2023/01/08 06:50:27;;;;;;;7.00;2.50;;;7.40;99.90;;;;;;5139167;27;20043;-58
2023/01/08 06:52:54;;;;;;;8.45;2.40;;;7.40;99.90;;;;;;5138332;27;20104;-57
2023/01/08 06:55:20;;;;;;;7.63;2.58;;;7.40;99.90;;;;;;5151896;27;20046;-57
2023/01/08 06:57:46;;;;;;;9.43;3.05;;;7.40;99.90;;;;;;5159467;27;20042;-57
2023/01/08 07:00:12;;;;;;;8.60;2.60;;;7.30;99.90;;;;;;5159459;27;20050;-57
2023/01/08 07:02:38;;;;;;;8.18;2.88;;;7.30;99.90;;;;;;5140919;27;20050;-57
2023/01/08 07:05:04;;;;;;;7.97;2.95;;;7.20;99.90;;;;;;5159037;27;20054;-57
2023/01/08 07:07:30;;;;;;;6.55;3.05;;;7.30;99.90;;;;;;5159948;27;20518;-57
2023/01/08 07:09:55;;;;;;;9.27;3.35;;;7.30;99.90;;;;;;5158545;27;20129;-57
2023/01/08 07:12:21;;;;;;;7.22;3.10;;;7.30;99.90;;;;;;5159153;27;20113;-57
2023/01/08 07:14:47;;;;;;;6.72;3.05;;;7.30;99.90;;;;;;5157862;27;20042;-57
2023/01/08 07:17:12;;;;;;;10.75;2.75;;;7.20;99.90;;;;;;5155372;27;20066;-57
2023/01/08 07:19:38;;;;;;;10.20;3.72;;;7.20;99.90;;;;;;5155198;27;20038;-57
2023/01/08 07:22:04;;;;;;;8.52;2.97;;;7.20;99.90;;;;;;5154938;27;20043;-57
2023/01/08 07:24:29;;;;;;;9.23;3.05;;;7.20;99.90;;;;;;5159550;27;20043;-58
2023/01/08 07:26:55;;;;;;;8.48;3.15;;;7.30;99.90;;;;;;5158515;27;20095;-57
2023/01/08 07:29:21;;;;;;;8.30;3.35;;;7.20;99.90;;;;;;5159363;27;20453;-57
2023/01/08 07:31:47;;;;;;;5.70;2.90;;;7.10;99.90;;;;;;5158382;27;20265;-56
2023/01/08 07:34:13;;;;;;;8.50;3.50;;;7.20;99.90;;;;;;5138670;27;20078;-57
2023/01/08 07:36:38;;;;;;;9.57;3.45;;;7.00;99.90;;;;;;5147195;27;20121;-57
2023/01/08 07:39:04;;;;;;;10.32;3.90;;;7.20;99.90;;;;;;5147370;27;20043;-57
2023/01/08 07:41:29;;;;;;;10.75;4.13;;;7.10;99.90;;;;;;5149334;27;20039;-58
2023/01/08 07:43:55;;;;;;;7.75;3.15;;;7.10;99.90;;;;;;5147280;27;20027;-56
2023/01/08 07:46:21;;;;;;;11.88;3.40;;;7.00;99.90;;;;;;5130016;27;20045;-57
2023/01/08 07:48:47;;;;;;;8.45;3.08;;;7.10;99.90;;;;;;5149421;27;20131;-57
2023/01/08 07:51:13;;;;;;;8.98;2.80;;;7.00;99.90;;;;;;5151889;27;20035;-57
2023/01/08 07:53:38;;;;;;;7.35;2.75;;;7.00;99.90;;;;;;5158879;27;20053;-57
2023/01/08 07:56:07;;;;;;;7.38;2.50;;;7.00;99.90;;;;;;5138697;27;20050;-58
2023/01/08 07:58:33;;;;;;;11.45;3.25;;;7.00;99.90;;;;;;5137624;27;20121;-57
2023/01/08 08:00:59;;;;;;;9.77;2.95;;;7.00;99.90;;;;;;5157775;27;20501;-57
2023/01/08 08:03:25;;;;;;;7.60;3.00;;;7.10;99.90;;;;;;5158331;27;20034;-57
2023/01/08 08:05:51;;;;;;;11.27;4.40;;;7.00;99.90;;;;;;5158271;27;20058;-56
2023/01/08 08:08:17;;;;;;;9.70;3.42;;;7.00;99.90;;;;;;5159022;27;20042;-57
2023/01/08 08:10:44;;;;;;;7.97;3.15;;;7.10;99.90;;;;;;5158622;27;20043;-57
2023/01/08 08:13:10;;;;;;;9.32;3.13;;;7.00;99.90;;;;;;5158020;27;20069;-57
2023/01/08 08:15:38;;;;;;;10.48;3.42;;;7.10;99.90;;;;;;5158012;27;20087;-57
2023/01/08 08:18:04;;;;;;;13.00;4.72;;;7.00;99.90;;;;;;5157875;27;20064;-57
2023/01/08 08:20:30;;;;;;;9.82;4.13;;;7.00;99.90;;;;;;5158943;27;20049;-58
2023/01/08 08:23:03;;;;;;;12.68;3.95;;;7.00;99.90;;;;;;5157765;27;20066;-58
2023/01/08 08:25:29;;;;;;;11.38;3.97;;;6.90;99.90;;;;;;5158311;27;20074;-57
2023/01/08 08:28:00;;;;;;;10.55;3.70;;;7.10;99.90;;;;;;5157531;27;20045;-57
2023/01/08 08:30:27;;;;;;;11.48;3.47;;;7.00;99.90;;;;;;5138591;27;20135;-57
2023/01/08 08:32:54;;;;;;;10.13;4.18;;;7.00;99.90;;;;;;5158464;27;20054;-57
2023/01/08 08:35:21;;;;;;;9.25;3.78;;;7.10;99.90;;;;;;5156358;27;20074;-56
2023/01/08 08:37:46;;;;;;;9.95;3.40;;;7.10;99.90;;;;;;5139690;27;20042;-57
2023/01/08 08:40:12;;;;;;;9.63;3.10;;;7.00;99.90;;;;;;5156819;27;20533;-57
2023/01/08 08:42:38;;;;;;;10.77;3.33;;;7.10;99.90;;;;;;5157923;27;20042;-58
2023/01/08 08:45:04;;;;;;;8.68;2.88;;;7.10;99.90;;;;;;5158041;27;20034;-57
2023/01/08 08:47:30;;;;;;;8.95;2.83;;;7.00;99.90;;;;;;5157545;27;20106;-57
2023/01/08 08:49:56;;;;;;;13.02;3.10;;;7.20;99.90;;;;;;5158303;27;20081;-57
2023/01/08 08:52:21;;;;;;;11.38;2.92;;;7.10;99.90;;;;;;5156504;27;20497;-57
2023/01/08 08:54:47;;;;;;;11.43;2.78;;;7.10;99.90;;;;;;5149025;27;20103;-58
2023/01/08 08:57:13;;;;;;;10.30;2.85;;;7.10;99.90;;;;;;5136219;27;20134;-57
2023/01/08 08:59:38;;;;;;;9.88;2.60;;;7.10;99.90;;;;;;5136758;27;20124;-56
2023/01/08 09:02:04;;;;;;;9.00;2.63;;;7.20;99.90;;;;;;5136298;27;20064;-57
2023/01/08 09:04:32;;;;;;;11.25;2.40;;;7.30;99.90;;;;;;5136439;27;20047;-57
2023/01/08 09:06:58;;;;;;;12.65;2.17;;;7.30;99.90;;;;;;5136913;27;20055;-57
2023/01/08 09:09:24;;;;;;;11.07;2.83;;;7.20;99.90;;;;;;5136337;27;20471;-57
2023/01/08 09:11:51;;;;;;;11.23;2.63;;;7.20;99.90;;;;;;5136363;27;20558;-58
2023/01/08 09:14:16;;;;;;;9.02;2.72;;;7.30;99.90;;;;;;5136068;27;20055;-57
2023/01/08 09:16:42;;;;;;;8.93;2.42;;;7.40;99.90;;;;;;5136135;27;20054;-57
2023/01/08 09:19:09;;;;;;;8.57;2.95;;;7.40;99.90;;;;;;5136572;27;20061;-57
2023/01/08 09:21:35;;;;;;;11.82;2.50;;;7.40;99.90;;;;;;5117653;27;20039;-57
2023/01/08 09:24:01;;;;;;;8.60;2.20;;;7.40;99.90;;;;;;5136642;27;20077;-56
2023/01/08 09:26:27;;;;;;;7.90;2.45;;;7.40;99.90;;;;;;5135688;27;20453;-57
2023/01/08 09:28:53;;;;;;;9.35;2.30;;;7.80;99.90;;;;;;5136266;27;20043;-56
2023/01/08 09:31:19;;;;;;;8.48;2.35;;;7.50;99.90;;;;;;5135445;27;20118;-58
2023/01/08 09:33:47;;;;;;;9.30;2.35;;;7.50;99.90;;;;;;5136509;27;20043;-57
2023/01/08 09:36:13;;;;;;;7.20;2.30;;;7.50;99.90;;;;;;5117051;27;20058;-57
2023/01/08 09:38:39;;;;;;;7.45;2.08;;;7.50;99.90;;;;;;5136099;27;20043;-57
2023/01/08 09:41:19;;;;;;;6.70;2.22;;;7.60;99.90;;;;;;5136089;27;20051;-56
2023/01/08 09:43:49;;;;;;;7.03;1.90;;;7.60;99.90;;;;;;5135891;27;20066;-56
2023/01/08 09:46:18;;;;;;;8.38;2.30;;;7.70;99.90;;;;;;5136792;27;20611;-56
2023/01/08 09:48:45;;;;;;;10.38;2.28;;;7.70;99.90;;;;;;5136122;27;20043;-57
2023/01/08 09:51:16;;;;;;;6.22;2.17;;;7.70;99.90;;;;;;5136417;27;20122;-56
2023/01/08 09:53:43;;;;;;;6.78;2.15;;;7.70;99.90;;;;;;5117770;27;20097;-56
2023/01/08 09:56:17;;;;;;;9.32;2.35;;;7.80;99.90;;;;;;5136313;27;20043;-57
2023/01/08 09:58:52;;;;;;;6.00;1.95;;;7.80;99.90;;;;;;5136026;27;20046;-56
2023/01/08 10:01:23;;;;;;;8.35;1.73;;;7.70;99.90;;;;;;5135062;27;20046;-56
2023/01/08 10:04:10;;;;;;;8.40;2.42;;;7.80;99.90;;;;;;5135401;27;20039;-56
2023/01/08 10:06:36;;;;;;;6.30;2.00;;;7.80;99.90;;;;;;5135707;27;20134;-56
2023/01/08 10:09:02;;;;;;;8.60;2.05;;;7.90;99.90;;;;;;5135461;27;20123;-56
2023/01/08 10:11:39;;;;;;;7.95;2.10;;;7.90;99.90;;;;;;5117190;27;20046;-57
2023/01/08 10:14:18;;;;;;;10.48;2.35;;;7.90;99.90;;;;;;5137305;27;20049;-56
2023/01/08 10:16:46;;;;;;;8.75;2.08;;;7.90;99.90;;;;;;5139068;27;20043;-57
2023/01/08 10:19:12;;;;;;;9.70;2.10;;;7.90;99.90;;;;;;5138644;27;20053;-56
2023/01/08 10:21:40;;;;;;;7.43;1.85;;;8.00;99.90;;;;;;5138760;27;20461;-57
2023/01/08 10:24:06;;;;;;;12.30;2.65;;;8.00;99.90;;;;;;5120533;27;20067;-56
2023/01/08 10:26:35;;;;;;;8.73;2.10;;;8.00;99.90;;;;;;5119752;27;20054;-57
2023/01/08 10:29:18;;;;;;;9.32;1.90;;;8.00;99.90;;;;;;5139128;27;20128;-56
2023/01/08 10:31:45;;;;;;;8.52;1.55;;;8.10;99.90;;;;;;5138373;27;20077;-57
2023/01/08 10:34:25;;;;;;;10.65;2.58;;;8.10;99.90;;;;;;5138873;27;20047;-57
2023/01/08 10:36:52;;;;;;;11.60;2.28;;;8.20;99.90;;;;;;5159135;27;20441;-56
2023/01/08 10:39:26;;;;;;;10.65;1.98;;;8.10;99.90;;;;;;5158549;27;20050;-56
2023/01/08 10:41:56;;;;;;;12.82;2.08;;;8.20;99.90;;;;;;5141065;27;20086;-56
2023/01/08 10:44:24;;;;;;;14.10;2.00;;;8.20;99.90;;;;;;5158861;27;20046;-56
2023/01/08 10:46:53;;;;;;;9.98;2.53;;;8.30;99.90;;;;;;5140953;27;20091;-56
2023/01/08 10:49:38;;;;;;;8.20;1.58;;;8.20;99.90;;;;;;5140509;27;20124;-57
2023/01/08 10:52:04;;;;;;;7.93;1.70;;;8.30;99.90;;;;;;5158884;27;20043;-58
2023/01/08 10:54:37;;;;;;;8.93;1.73;;;8.30;99.90;;;;;;5153325;27;20494;-57
2023/01/08 10:57:22;;;;;;;9.85;2.00;;;8.40;99.90;;;;;;5137653;27;20070;-57
2023/01/08 10:59:47;;;;;;;9.98;2.10;;;8.40;99.90;;;;;;5138282;27;20506;-57
2023/01/08 11:02:26;;;;;;;7.18;1.98;;;8.40;99.90;;;;;;5102605;28;20043;-56
2023/01/08 11:04:52;;;;;;;12.05;1.90;;;8.40;99.90;;;;;;5137974;27;20051;-56
2023/01/08 11:07:21;;;;;;;9.73;1.92;;;8.40;99.90;;;;;;5138554;27;20195;-57
2023/01/08 11:09:50;;;;;;;8.55;1.92;;;8.40;99.90;;;;;;5118979;28;20043;-57
2023/01/08 11:12:39;;;;;;;8.82;1.90;;;8.40;99.90;;;;;;5119929;28;20050;-57
2023/01/08 11:15:25;;;;;;;10.75;1.77;;;8.40;99.90;;;;;;5139188;27;20038;-54
2023/01/08 11:17:51;;;;;;;10.15;1.90;;;8.40;99.90;;;;;;5145059;27;20490;-57
2023/01/08 11:20:29;;;;;;;9.80;2.17;;;8.40;99.90;;;;;;5148835;27;20049;-57
2023/01/08 11:23:16;;;;;;;14.20;2.40;;;8.50;99.90;;;;;;5145547;27;20039;-57
2023/01/08 11:25:49;;;;;;;12.77;2.05;;;8.50;99.90;;;;;;5148598;27;20046;-57
2023/01/08 11:28:24;;;;;;;10.77;2.17;;;8.60;99.90;;;;;;5147870;27;20085;-58
2023/01/08 11:31:18;;;;;;;14.77;2.22;;;8.60;99.90;;;;;;5145819;27;20146;-57
2023/01/08 11:33:46;;;;;;;12.85;2.25;;;8.70;99.90;;;;;;5149562;27;20042;-57
2023/01/08 11:36:27;;;;;;;14.70;2.88;;;8.70;99.90;;;;;;5147822;27;20049;-57
2023/01/08 11:38:53;;;;;;;12.23;2.70;;;8.70;99.90;;;;;;5150645;27;20062;-57
2023/01/08 11:41:35;;;;;;;9.02;2.58;;;8.70;99.90;;;;;;5159201;27;20058;-58
2023/01/08 11:44:06;;;;;;;12.15;2.55;;;8.60;99.90;;;;;;5138856;27;20050;-56
2023/01/08 11:46:45;;;;;;;12.60;2.50;;;8.60;99.90;;;;;;5158689;27;20045;-57
2023/01/08 11:49:45;;;;;;;12.80;2.53;;;8.50;99.90;;;;;;5158374;27;20070;-56
2023/01/08 11:52:29;;;;;;;13.10;2.85;;;8.60;99.90;;;;;;5157597;27;20105;-57
2023/01/08 11:55:09;;;;;;;13.60;2.70;;;8.70;99.90;;;;;;5148716;27;20047;-56
2023/01/08 11:58:05;;;;;;;11.82;2.55;;;8.70;99.90;;;;;;5137459;28;20039;-56
2023/01/08 12:01:15;;;;;;;14.95;2.47;;;8.80;99.90;;;;;;5136240;28;20100;-57
2023/01/08 12:04:12;;;;;;;8.77;2.13;;;8.80;99.90;;;;;;5137853;28;20043;-56
2023/01/08 12:06:58;;;;;;;10.32;2.30;;;8.80;99.90;;;;;;5084913;28;20051;-56
2023/01/08 12:09:35;;;;;;;9.55;2.70;;;8.80;99.90;;;;;;5137784;27;20132;-57
2023/01/08 12:12:21;;;;;;;12.68;2.35;;;8.80;99.90;;;;;;5141418;27;20045;-56
2023/01/08 12:15:06;;;;;;;14.23;3.28;;;8.80;99.90;;;;;;5140945;27;20039;-57
2023/01/08 12:17:42;;;;;;;12.20;2.90;;;8.70;99.90;;;;;;5141033;27;20043;-56
2023/01/08 12:20:23;;;;;;;10.63;2.72;;;8.80;99.90;;;;;;5122606;27;20526;-56
2023/01/08 12:23:01;;;;;;;11.98;2.83;;;8.70;99.90;;;;;;5140898;27;20039;-55
2023/01/08 12:25:33;;;;;;;17.67;2.85;;;8.70;99.90;;;;;;5141261;27;20071;-56
2023/01/08 12:28:36;;;;;;;10.50;2.45;;;8.70;99.90;;;;;;5141199;27;20043;-56
2023/01/08 12:31:05;;;;;;;11.48;2.83;;;8.80;99.90;;;;;;5121833;27;20063;-56
2023/01/08 12:33:42;;;;;;;12.10;2.17;;;8.90;99.90;;;;;;5141173;27;20051;-56
2023/01/08 12:36:13;;;;;;;12.85;2.67;;;8.80;99.90;;;;;;5140679;27;20072;-56
2023/01/08 12:38:43;;;;;;;11.63;2.80;;;8.90;99.90;;;;;;5140475;27;20039;-56
2023/01/08 12:41:12;;;;;;;11.13;2.95;;;8.80;99.90;;;;;;5123108;27;20045;-57
2023/01/08 12:43:57;;;;;;;13.05;2.40;;;8.70;99.90;;;;;;5140292;27;20061;-57
2023/01/08 12:46:27;;;;;;;12.38;3.03;;;8.70;99.90;;;;;;5122705;27;20550;-57
2023/01/08 12:48:54;;;;;;;11.98;3.17;;;8.80;99.90;;;;;;5140602;27;20050;-57
2023/01/08 12:51:30;;;;;;;13.20;2.85;;;8.90;99.90;;;;;;5140962;27;20039;-58
2023/01/08 12:54:08;;;;;;;11.57;2.45;;;8.90;99.90;;;;;;5141334;27;20054;-57
2023/01/08 12:56:54;;;;;;;15.10;2.85;;;8.90;99.90;;;;;;5140360;27;20559;-57
2023/01/08 12:59:27;;;;;;;12.43;2.58;;;8.90;99.90;;;;;;5140618;27;20062;-56
2023/01/08 13:02:06;;;;;;;11.65;2.22;;;8.90;99.90;;;;;;5140673;27;20052;-55
2023/01/08 13:04:43;;;;;;;9.40;2.85;;;8.70;99.90;;;;;;5140102;27;20050;-56
2023/01/08 13:07:26;;;;;;;15.05;3.63;;;8.80;99.90;;;;;;5140508;27;20110;-56